Time;durP1;ratioP1;P1;durP2;ratioP2;P2;SDS_P1;SDS_P2;PMS_P1;PMS_P2;Temp;Humidity;BMP_temperature;BMP_pressure;BME280_temperature;BME280_humidity;BME280_pressure;Samples;Min_cycle;Max_cycle;Signal;HPM_P1;HPM_P2
2023/10/25 00:00:00;;;;;;;19.13;10.23;;;;;;;;;;5104997;28;20465;-76
2023/10/25 00:02:26;;;;;;;20.70;10.55;;;;;;;;;;5096946;28;20400;-75
2023/10/25 00:04:55;;;;;;;18.57;10.13;;;;;;;;;;5112235;27;20478;-76
2023/10/25 00:07:21;;;;;;;18.75;9.70;;;;;;;;;;5088358;27;20415;-81
2023/10/25 00:09:48;;;;;;;15.20;9.75;;;;;;;;;;5125951;27;20912;-82
2023/10/25 00:12:14;;;;;;;17.85;9.80;;;;;;;;;;5142008;27;20405;-82
2023/10/25 00:14:41;;;;;;;17.65;9.38;;;;;;;;;;5107548;27;20415;-81
2023/10/25 00:17:07;;;;;;;16.98;10.02;;;;;;;;;;5118807;27;20406;-82
2023/10/25 00:19:33;;;;;;;14.00;8.85;;;;;;;;;;5121029;27;20397;-81
2023/10/25 00:22:00;;;;;;;17.75;9.52;;;;;;;;;;5101641;27;20405;-81
2023/10/25 00:24:26;;;;;;;16.80;8.55;;;;;;;;;;5082628;28;20461;-82
2023/10/25 00:26:52;;;;;;;16.10;8.32;;;;;;;;;;5102336;27;20438;-82
2023/10/25 00:29:18;;;;;;;13.82;7.40;;;;;;;;;;5104073;27;20398;-82
2023/10/25 00:31:44;;;;;;;14.10;8.25;;;;;;;;;;5101201;27;20402;-82
2023/10/25 00:34:10;;;;;;;13.40;8.02;;;;;;;;;;5109025;27;20509;-82
2023/10/25 00:36:36;;;;;;;15.60;8.00;;;;;;;;;;5118007;27;20386;-82
2023/10/25 00:39:02;;;;;;;12.98;7.75;;;;;;;;;;5108995;28;20963;-82
2023/10/25 00:41:28;;;;;;;12.97;7.50;;;;;;;;;;5108428;27;20395;-82
2023/10/25 00:43:55;;;;;;;12.75;7.60;;;;;;;;;;5114566;28;20488;-81
2023/10/25 00:46:25;;;;;;;14.70;7.70;;;;;;;;;;5112502;27;20407;-81
2023/10/25 00:48:55;;;;;;;13.68;7.60;;;9.40;99.90;;;;;;5121916;27;20416;-82
2023/10/25 00:51:22;;;;;;;14.30;7.18;;;;;;;;;;5115393;27;20398;-81
2023/10/25 00:53:52;;;;;;;13.50;7.15;;;9.30;99.90;;;;;;5093781;27;20415;-81
2023/10/25 00:56:20;;;;;;;12.48;7.32;;;;;;;;;;5098792;27;20397;-81
2023/10/25 00:58:48;;;;;;;14.88;6.90;;;;;;;;;;5111686;28;20400;-82
2023/10/25 01:01:15;;;;;;;11.70;6.70;;;9.50;99.90;;;;;;5117580;27;20399;-81
2023/10/25 01:03:41;;;;;;;11.55;6.97;;;;;;;;;;5109072;27;20486;-81
2023/10/25 01:06:07;;;;;;;12.60;6.78;;;;;;;;;;5120429;27;20406;-82
2023/10/25 01:08:33;;;;;;;13.13;6.30;;;;;;;;;;5093000;28;20396;-81
2023/10/25 01:11:01;;;;;;;13.53;6.37;;;;;;;;;;5095692;27;20484;-83
2023/10/25 01:13:27;;;;;;;13.48;6.88;;;;;;;;;;5113491;27;20419;-83
2023/10/25 01:15:53;;;;;;;12.65;6.78;;;;;;;;;;5088868;27;20406;-83
2023/10/25 01:18:19;;;;;;;10.80;6.53;;;;;;;;;;5096383;27;20405;-82
2023/10/25 01:20:45;;;;;;;13.02;7.00;;;;;;;;;;5084038;27;20416;-83
2023/10/25 01:23:12;;;;;;;14.13;6.75;;;;;;;;;;5115376;27;20423;-82
2023/10/25 01:25:38;;;;;;;13.23;7.07;;;;;;;;;;5100643;27;20861;-83
2023/10/25 01:28:05;;;;;;;18.35;7.72;;;;;;;;;;5116469;27;20750;-82
2023/10/25 01:30:31;;;;;;;12.73;7.55;;;;;;;;;;5095142;27;20402;-83
2023/10/25 01:33:00;;;;;;;15.25;8.00;;;;;;;;;;5122482;27;20407;-82
2023/10/25 01:35:26;;;;;;;13.07;7.63;;;;;;;;;;5109169;27;20459;-82
2023/10/25 01:37:52;;;;;;;12.20;8.18;;;;;;;;;;5105562;27;20404;-82
2023/10/25 01:40:18;;;;;;;15.63;8.07;;;;;;;;;;5116128;27;20435;-81
2023/10/25 01:42:45;;;;;;;15.00;8.00;;;;;;;;;;5125951;27;20394;-82
2023/10/25 01:45:11;;;;;;;15.00;8.30;;;;;;;;;;5107592;27;20894;-81
2023/10/25 01:47:41;;;;;;;13.80;8.32;;;;;;;;;;5112447;27;20427;-81
2023/10/25 01:50:10;;;;;;;14.40;8.70;;;;;;;;;;5102686;28;20408;-81
2023/10/25 01:52:36;;;;;;;15.55;8.93;;;;;;;;;;5113357;27;21003;-81
2023/10/25 01:55:03;;;;;;;17.55;9.32;;;;;;;;;;5094165;27;20425;-81
2023/10/25 01:57:29;;;;;;;15.68;9.23;;;;;;;;;;5115170;27;20398;-81
2023/10/25 01:59:55;;;;;;;19.05;9.32;;;;;;;;;;5102761;28;20410;-82
2023/10/25 02:02:21;;;;;;;14.00;9.10;;;8.90;99.90;;;;;;5073330;27;20911;-82
2023/10/25 02:04:47;;;;;;;17.88;9.68;;;;;;;;;;5100365;27;20399;-82
2023/10/25 02:07:13;;;;;;;20.00;10.18;;;;;;;;;;5110779;28;20396;-82
2023/10/25 02:09:39;;;;;;;21.80;10.32;;;;;;;;;;5085222;27;20406;-82
2023/10/25 02:12:05;;;;;;;18.80;10.40;;;;;;;;;;5129903;27;20476;-81
2023/10/25 02:14:36;;;;;;;19.73;10.52;;;;;;;;;;5097451;27;20500;-81
2023/10/25 02:17:02;;;;;;;17.90;10.87;;;;;;;;;;5110471;27;20890;-82
2023/10/25 02:19:28;;;;;;;19.95;11.25;;;;;;;;;;5123457;27;20397;-81
2023/10/25 02:21:54;;;;;;;18.70;11.27;;;;;;;;;;5106612;27;20488;-81
2023/10/25 02:24:20;;;;;;;22.17;11.55;;;;;;;;;;5086021;28;20404;-81
2023/10/25 02:26:46;;;;;;;19.60;11.10;;;;;;;;;;5108429;27;20406;-82
2023/10/25 02:29:12;;;;;;;19.80;11.10;;;;;;;;;;5077383;27;20413;-81
2023/10/25 02:31:39;;;;;;;19.67;11.68;;;;;;;;;;5103632;27;20402;-82
2023/10/25 02:34:05;;;;;;;22.02;12.02;;;;;;;;;;5079844;27;20420;-82
2023/10/25 02:36:31;;;;;;;23.52;11.60;;;;;;;;;;5104939;27;20924;-82
2023/10/25 02:38:57;;;;;;;17.98;11.05;;;8.80;99.90;;;;;;5097884;27;20456;-82
2023/10/25 02:41:24;;;;;;;18.90;11.85;;;;;;;;;;5109583;27;20490;-82
2023/10/25 02:43:59;;;;;;;23.60;11.97;;;;;;;;;;5114270;27;20433;-82
2023/10/25 02:46:26;;;;;;;19.63;12.25;;;;;;;;;;5138469;27;20938;-82
2023/10/25 02:48:52;;;;;;;20.35;11.60;;;;;;;;;;5088924;27;20886;-82
2023/10/25 02:51:18;;;;;;;18.35;11.75;;;;;;;;;;5115087;28;20511;-81
2023/10/25 02:53:44;;;;;;;27.23;12.75;;;;;;;;;;5111054;28;20915;-82
2023/10/25 02:56:11;;;;;;;21.05;11.90;;;;;;;;;;5111519;27;20489;-82
2023/10/25 02:58:37;;;;;;;18.23;12.43;;;;;;;;;;5085026;28;20407;-82
2023/10/25 03:01:03;;;;;;;21.73;12.57;;;;;;;;;;5113237;27;20393;-81
2023/10/25 03:03:30;;;;;;;22.98;13.43;;;8.20;99.90;;;;;;5113515;28;20415;-82
2023/10/25 03:05:57;;;;;;;26.42;13.73;;;;;;;;;;5097523;28;20960;-82
2023/10/25 03:08:23;;;;;;;24.63;13.90;;;;;;;;;;5109201;28;20400;-81
2023/10/25 03:10:49;;;;;;;24.23;14.80;;;;;;;;;;5076470;28;20408;-81
2023/10/25 03:13:16;;;;;;;25.85;15.10;;;8.60;99.90;;;;;;5091885;28;20453;-82
2023/10/25 03:15:42;;;;;;;30.55;16.50;;;;;;;;;;5120668;28;20422;-82
2023/10/25 03:18:08;;;;;;;25.17;16.00;;;;;;;;;;5096501;28;20950;-82
2023/10/25 03:20:34;;;;;;;27.92;15.95;;;;;;;;;;5129038;27;20407;-82
2023/10/25 03:23:01;;;;;;;30.90;16.60;;;;;;;;;;5126732;28;20402;-82
2023/10/25 03:25:27;;;;;;;27.38;17.10;;;;;;;;;;5095064;28;20400;-83
2023/10/25 03:27:53;;;;;;;29.27;17.08;;;;;;;;;;5089318;28;20406;-82
2023/10/25 03:30:19;;;;;;;29.43;17.73;;;;;;;;;;5125360;27;20408;-82
2023/10/25 03:32:46;;;;;;;32.88;18.38;;;;;;;;;;5127689;28;20399;-82
2023/10/25 03:35:12;;;;;;;30.73;18.85;;;;;;;;;;5106729;27;20414;-82
2023/10/25 03:37:41;;;;;;;30.15;19.13;;;8.10;99.90;;;;;;5124822;28;20524;-76
2023/10/25 03:40:08;;;;;;;33.03;18.70;;;;;;;;;;5106573;27;20989;-75
2023/10/25 03:42:35;;;;;;;32.00;19.02;;;;;;;;;;5069040;28;20470;-75
2023/10/25 03:45:01;;;;;;;32.05;19.75;;;;;;;;;;5111337;27;20400;-75
2023/10/25 03:47:27;;;;;;;31.60;19.73;;;;;;;;;;5127739;28;20430;-75
2023/10/25 03:49:53;;;;;;;30.77;19.77;;;;;;;;;;5112430;27;20454;-74
2023/10/25 03:52:19;;;;;;;34.30;19.33;;;;;;;;;;5118458;28;20403;-75
2023/10/25 03:54:45;;;;;;;33.30;19.60;;;;;;;;;;5122607;27;20513;-75
2023/10/25 03:57:11;;;;;;;30.95;18.48;;;;;;;;;;5080770;28;20407;-75
2023/10/25 03:59:37;;;;;;;30.00;18.10;;;;;;;;;;5098064;28;20400;-75
2023/10/25 04:02:03;;;;;;;27.77;17.33;;;;;;;;;;5112311;27;20960;-75
2023/10/25 04:04:29;;;;;;;30.13;16.80;;;;;;;;;;5101432;27;20888;-75
2023/10/25 04:06:56;;;;;;;31.60;17.20;;;;;;;;;;5103102;27;20754;-74
2023/10/25 04:09:22;;;;;;;32.38;18.25;;;;;;;;;;5099102;27;20419;-75
2023/10/25 04:11:49;;;;;;;28.38;16.80;;;;;;;;;;5100149;27;20450;-76
2023/10/25 04:14:15;;;;;;;30.35;17.17;;;;;;;;;;5101444;27;20537;-75
2023/10/25 04:16:41;;;;;;;28.60;16.80;;;;;;;;;;5080511;28;20415;-75
2023/10/25 04:19:07;;;;;;;27.55;16.30;;;;;;;;;;5113871;27;20405;-75
2023/10/25 04:21:33;;;;;;;27.70;16.52;;;;;;;;;;5106651;28;20514;-75
2023/10/25 04:23:59;;;;;;;28.92;16.95;;;;;;;;;;5106002;27;20411;-75
2023/10/25 04:26:25;;;;;;;30.17;15.38;;;;;;;;;;5125914;27;20479;-76
2023/10/25 04:28:51;;;;;;;34.55;16.73;;;8.00;99.90;;;;;;5088340;27;20451;-75
2023/10/25 04:31:20;;;;;;;26.50;15.77;;;;;;;;;;5103273;28;20428;-76
2023/10/25 04:33:47;;;;;;;26.73;16.60;;;;;;;;;;5079597;28;20503;-76
2023/10/25 04:36:13;;;;;;;29.98;17.20;;;;;;;;;;5129757;27;20752;-76
2023/10/25 04:38:40;;;;;;;27.95;16.02;;;;;;;;;;5102588;28;20439;-77
2023/10/25 04:41:06;;;;;;;24.10;15.52;;;;;;;;;;5123563;27;20395;-76
2023/10/25 04:43:32;;;;;;;27.58;15.50;;;;;;;;;;5081446;28;20416;-76
2023/10/25 04:45:58;;;;;;;26.52;15.45;;;;;;;;;;5096330;28;20414;-76
2023/10/25 04:48:24;;;;;;;26.27;15.30;;;;;;;;;;5083638;28;20415;-76
2023/10/25 04:50:50;;;;;;;28.00;15.23;;;;;;;;;;5123823;27;20494;-76
2023/10/25 04:53:17;;;;;;;31.83;15.60;;;;;;;;;;5097604;27;20766;-77
2023/10/25 04:55:46;;;;;;;25.85;15.38;;;;;;;;;;5098448;27;20394;-76
2023/10/25 04:58:13;;;;;;;24.05;15.48;;;;;;;;;;5098475;27;20435;-77
2023/10/25 05:00:39;;;;;;;25.73;15.37;;;;;;;;;;5113228;27;20770;-76
2023/10/25 05:03:10;;;;;;;27.63;15.13;;;;;;;;;;5105269;27;20395;-76
2023/10/25 05:05:37;;;;;;;25.97;15.60;;;;;;;;;;5082759;27;20426;-77
2023/10/25 05:08:03;;;;;;;23.95;14.70;;;;;;;;;;5090033;27;20428;-76
2023/10/25 05:10:30;;;;;;;39.05;17.20;;;;;;;;;;5087514;27;20406;-77
2023/10/25 05:12:56;;;;;;;38.38;15.98;;;;;;;;;;5101229;27;20413;-76
2023/10/25 05:15:24;;;;;;;26.20;15.13;;;;;;;;;;5110194;27;20839;-77
2023/10/25 05:17:51;;;;;;;53.60;17.80;;;;;;;;;;5086712;27;20435;-76
2023/10/25 05:20:17;;;;;;;26.23;15.35;;;;;;;;;;5093876;28;20418;-76
2023/10/25 05:22:50;;;;;;;24.27;14.32;;;7.80;99.90;;;;;;5113457;27;20403;-76
2023/10/25 05:25:16;;;;;;;30.38;15.52;;;;;;;;;;5080731;27;20491;-77
2023/10/25 05:27:42;;;;;;;290.13;33.03;;;;;;;;;;5111186;27;20976;-77
2023/10/25 05:30:09;;;;;;;23.30;13.88;;;;;;;;;;5095524;27;20402;-77
2023/10/25 05:32:37;;;;;;;23.10;13.77;;;7.80;99.90;;;;;;5095662;27;20972;-77
2023/10/25 05:35:05;;;;;;;24.67;14.68;;;;;;;;;;5133522;27;20415;-77
2023/10/25 05:37:31;;;;;;;26.58;13.82;;;;;;;;;;5079537;28;20408;-77
2023/10/25 05:39:57;;;;;;;52.72;16.55;;;;;;;;;;5097090;28;20502;-76
2023/10/25 05:42:24;;;;;;;112.45;18.00;;;;;;;;;;5105227;27;20397;-76
2023/10/25 05:44:56;;;;;;;25.00;14.10;;;;;;;;;;5120644;27;20415;-76
2023/10/25 05:47:26;;;;;;;26.77;14.63;;;;;;;;;;5093671;28;20407;-76
2023/10/25 05:49:52;;;;;;;24.87;13.67;;;;;;;;;;5081223;27;20437;-76
2023/10/25 05:52:19;;;;;;;27.48;14.20;;;;;;;;;;5112884;27;20886;-75
2023/10/25 05:54:45;;;;;;;22.38;12.82;;;;;;;;;;5112215;27;20443;-76
2023/10/25 05:57:11;;;;;;;28.52;13.43;;;;;;;;;;5093360;28;20850;-75
2023/10/25 05:59:37;;;;;;;23.20;13.35;;;;;;;;;;5095264;27;20456;-75
2023/10/25 06:02:15;;;;;;;25.00;13.57;;;7.60;99.90;;;;;;5108540;27;20444;-76
2023/10/25 06:04:44;;;;;;;25.15;14.38;;;;;;;;;;5117160;27;20442;-75
2023/10/25 06:07:11;;;;;;;25.45;13.55;;;7.60;99.90;;;;;;5112851;27;20405;-75
2023/10/25 06:09:38;;;;;;;22.02;13.73;;;;;;;;;;5093340;27;20424;-75
2023/10/25 06:12:04;;;;;;;23.88;13.23;;;;;;;;;;5082357;27;20764;-75
2023/10/25 06:14:31;;;;;;;26.65;13.07;;;;;;;;;;5091498;27;20421;-75
2023/10/25 06:16:57;;;;;;;23.23;13.73;;;;;;;;;;5081196;27;20413;-76
2023/10/25 06:19:23;;;;;;;22.00;13.38;;;;;;;;;;5106154;28;20880;-76
2023/10/25 06:21:49;;;;;;;24.58;13.85;;;;;;;;;;5094420;28;20416;-76
2023/10/25 06:24:16;;;;;;;24.58;14.25;;;;;;;;;;5101994;27;20438;-78
2023/10/25 06:26:42;;;;;;;25.70;13.82;;;;;;;;;;5129839;27;20892;-75
2023/10/25 06:29:08;;;;;;;24.33;14.30;;;;;;;;;;5110785;27;20451;-76
2023/10/25 06:31:34;;;;;;;23.40;14.18;;;;;;;;;;5112799;27;20406;-75
2023/10/25 06:34:00;;;;;;;27.60;14.70;;;;;;;;;;5090669;27;20435;-75
2023/10/25 06:36:27;;;;;;;25.60;13.95;;;;;;;;;;5082719;27;20402;-76
2023/10/25 06:38:53;;;;;;;25.95;14.52;;;;;;;;;;5111076;27;20400;-75
2023/10/25 06:41:22;;;;;;;25.83;14.93;;;7.50;99.90;;;;;;5078162;27;20964;-75
2023/10/25 06:43:48;;;;;;;23.92;14.95;;;;;;;;;;5101338;27;20415;-75
2023/10/25 06:46:15;;;;;;;24.77;14.73;;;;;;;;;;5088628;27;20406;-75
2023/10/25 06:48:41;;;;;;;22.55;14.48;;;;;;;;;;5094498;28;20479;-75
2023/10/25 06:51:08;;;;;;;29.20;15.00;;;7.50;99.90;;;;;;5108505;27;20778;-75
2023/10/25 06:53:36;;;;;;;23.52;14.90;;;;;;;;;;5113495;28;20450;-75
2023/10/25 06:56:02;;;;;;;24.63;14.52;;;;;;;;;;5071222;27;20453;-75
2023/10/25 06:58:29;;;;;;;23.63;14.60;;;;;;;;;;5106123;28;20430;-75
2023/10/25 07:00:58;;;;;;;21.93;14.13;;;;;;;;;;5120814;28;20525;-76
2023/10/25 07:03:27;;;;;;;27.60;14.30;;;;;;;;;;5112782;27;20401;-84
2023/10/25 07:05:56;;;;;;;21.25;13.55;;;7.80;99.90;;;;;;5105044;28;20441;-81
2023/10/25 07:08:22;;;;;;;22.50;13.75;;;;;;;;;;5100416;28;20402;-83
2023/10/25 07:10:48;;;;;;;30.55;18.15;;;;;;;;;;5087638;28;20412;-82
2023/10/25 07:13:14;;;;;;;25.98;16.90;;;;;;;;;;5100659;28;20406;-84
2023/10/25 07:15:40;;;;;;;30.83;17.17;;;;;;;;;;5113887;28;20412;-83
2023/10/25 07:18:06;;;;;;;29.73;14.55;;;;;;;;;;5102963;28;20416;-83
2023/10/25 07:20:32;;;;;;;24.25;14.55;;;;;;;;;;5104296;28;20459;-82
2023/10/25 07:23:00;;;;;;;24.05;14.10;;;;;;;;;;5077342;28;20407;-82
2023/10/25 07:25:26;;;;;;;27.73;14.65;;;;;;;;;;5112340;28;20405;-83
2023/10/25 07:27:52;;;;;;;25.50;14.70;;;;;;;;;;5119510;28;20488;-83
2023/10/25 07:30:18;;;;;;;24.55;13.98;;;;;;;;;;5111661;28;20396;-83
2023/10/25 07:32:45;;;;;;;25.55;14.38;;;;;;;;;;5087291;28;20417;-84
2023/10/25 07:35:11;;;;;;;27.60;14.80;;;;;;;;;;5091372;28;20510;-83
2023/10/25 07:37:37;;;;;;;22.60;14.18;;;;;;;;;;5090552;28;20438;-82
2023/10/25 07:40:05;;;;;;;25.42;14.48;;;;;;;;;;5095348;28;20459;-83
2023/10/25 07:42:31;;;;;;;27.85;13.70;;;;;;;;;;5078327;28;20837;-84
2023/10/25 07:44:58;;;;;;;22.23;13.73;;;;;;;;;;5092615;28;20428;-84
2023/10/25 07:47:24;;;;;;;22.80;13.23;;;;;;;;;;5113824;27;20430;-83
2023/10/25 07:49:50;;;;;;;23.35;14.13;;;;;;;;;;5136262;27;20398;-82
2023/10/25 07:52:17;;;;;;;26.63;13.18;;;;;;;;;;5129864;27;20481;-84
2023/10/25 07:54:43;;;;;;;27.23;14.30;;;;;;;;;;5115414;28;20424;-83
2023/10/25 07:57:09;;;;;;;27.50;13.05;;;;;;;;;;5115491;28;20442;-82
2023/10/25 07:59:36;;;;;;;23.17;13.38;;;;;;;;;;5107993;28;20439;-81
2023/10/25 08:02:02;;;;;;;21.93;12.73;;;;;;;;;;5083081;28;20867;-75
2023/10/25 08:04:28;;;;;;;19.20;12.15;;;;;;;;;;5109447;27;20794;-76
2023/10/25 08:06:54;;;;;;;20.63;12.50;;;;;;;;;;5103275;27;20506;-76
2023/10/25 08:09:21;;;;;;;23.20;12.80;;;;;;;;;;5100354;27;20743;-76
2023/10/25 08:11:47;;;;;;;24.40;12.53;;;;;;;;;;5088388;27;20514;-76
2023/10/25 08:14:13;;;;;;;21.77;13.15;;;;;;;;;;5092465;28;20501;-76
2023/10/25 08:16:39;;;;;;;23.75;12.88;;;;;;;;;;5086558;27;20416;-76
2023/10/25 08:19:09;;;;;;;20.77;12.53;;;8.30;99.90;;;;;;5106393;27;20941;-75
2023/10/25 08:21:38;;;;;;;20.70;12.40;;;8.30;99.90;;;;;;5133443;27;20446;-75
2023/10/25 08:24:08;;;;;;;22.70;14.82;;;;;;;;;;5092955;28;20434;-75
2023/10/25 08:26:40;;;;;;;19.80;13.20;;;;;;;;;;5093448;28;20433;-76
2023/10/25 08:29:07;;;;;;;22.77;13.68;;;;;;;;;;5109201;28;20404;-75
2023/10/25 08:31:33;;;;;;;24.80;13.93;;;;;;;;;;5098525;27;20781;-76
2023/10/25 08:33:59;;;;;;;26.75;15.75;;;;;;;;;;5075672;28;20552;-75
2023/10/25 08:36:28;;;;;;;25.23;15.83;;;8.60;99.90;;;;;;5120156;27;20426;-75
2023/10/25 08:38:55;;;;;;;22.88;13.38;;;;;;;;;;5115831;27;20417;-75
2023/10/25 08:41:24;;;;;;;22.50;13.13;;;;;;;;;;5091260;28;20761;-76
2023/10/25 08:43:52;;;;;;;20.95;13.65;;;8.70;99.90;;;;;;5086346;28;20489;-75
2023/10/25 08:46:20;;;;;;;22.27;12.73;;;;;;;;;;5085933;28;20420;-76
2023/10/25 08:48:47;;;;;;;21.08;12.70;;;;;;;;;;5100967;27;20423;-75
2023/10/25 08:51:14;;;;;;;22.25;12.43;;;8.60;99.90;;;;;;5081030;28;20417;-76
2023/10/25 08:53:41;;;;;;;18.88;12.38;;;9.00;99.90;;;;;;5113741;27;20424;-76
2023/10/25 08:56:08;;;;;;;21.90;13.25;;;9.00;99.90;;;;;;5106288;28;20396;-76
2023/10/25 08:58:34;;;;;;;20.80;13.40;;;;;;;;;;5105681;27;20422;-75
2023/10/25 09:01:00;;;;;;;21.50;13.18;;;;;;;;;;5089913;28;20408;-75
2023/10/25 09:03:33;;;;;;;17.17;11.45;;;;;;;;;;5106653;27;20444;-76
2023/10/25 09:06:06;;;;;;;19.58;12.18;;;;;;;;;;5087742;27;20924;-77
2023/10/25 09:08:32;;;;;;;18.98;12.00;;;9.20;99.90;;;;;;5080121;28;20410;-78
2023/10/25 09:11:02;;;;;;;16.10;11.30;;;;;;;;;;5077145;28;20413;-77
2023/10/25 09:13:36;;;;;;;19.38;10.73;;;9.30;99.90;;;;;;5097965;27;20427;-78
2023/10/25 09:16:04;;;;;;;16.60;10.48;;;;;;;;;;5100975;27;20410;-83
2023/10/25 09:18:32;;;;;;;19.55;10.70;;;9.40;99.90;;;;;;5124245;27;20794;-83
2023/10/25 09:20:59;;;;;;;16.33;10.48;;;9.20;99.90;;;;;;5099115;28;20894;-82
2023/10/25 09:23:24;;;;;;;18.88;10.90;;;9.30;99.90;;;;;;5091176;28;20398;-83
2023/10/25 09:25:51;;;;;;;17.95;10.40;;;;;;;;;;5084993;28;20462;-84
2023/10/25 09:28:27;;;;;;;19.00;10.60;;;9.40;99.90;;;;;;5113436;28;20396;-84
2023/10/25 09:30:54;;;;;;;15.43;10.55;;;;;;;;;;5102202;28;20752;-83
2023/10/25 09:33:20;;;;;;;16.20;10.15;;;;;;;;;;5089297;28;20449;-83
2023/10/25 09:35:46;;;;;;;17.23;10.40;;;;;;;;;;5085774;27;20404;-83
2023/10/25 09:38:12;;;;;;;19.10;10.50;;;;;;;;;;5062850;28;20501;-84
2023/10/25 09:40:41;;;;;;;18.05;9.98;;;9.70;99.90;;;;;;5083637;28;20427;-84
2023/10/25 09:43:13;;;;;;;17.48;10.27;;;;;;;;;;5107649;28;20405;-83
2023/10/25 09:45:42;;;;;;;16.27;10.17;;;9.80;99.90;;;;;;5093081;27;20505;-83
2023/10/25 09:48:11;;;;;;;15.90;9.80;;;9.40;99.90;;;;;;5096262;28;20596;-83
2023/10/25 09:50:41;;;;;;;16.77;9.50;;;9.90;99.90;;;;;;5091017;28;20512;-83
2023/10/25 09:53:26;;;;;;;17.02;9.52;;;9.90;99.90;;;;;;5099084;28;20455;-83
2023/10/25 09:56:00;;;;;;;15.90;10.73;;;10.00;99.90;;;;;;5110471;28;20404;-83
2023/10/25 09:58:28;;;;;;;15.50;10.13;;;10.10;99.90;;;;;;5111859;28;20410;-83
2023/10/25 10:00:55;;;;;;;17.38;10.50;;;;;;;;;;5111315;28;20420;-83
2023/10/25 10:03:29;;;;;;;16.27;9.23;;;;;;;;;;5102099;28;20420;-82
2023/10/25 10:06:03;;;;;;;15.43;10.05;;;;;;;;;;5095626;28;20422;-82
2023/10/25 10:08:53;;;;;;;16.33;8.88;;;10.60;99.90;;;;;;5103662;28;20417;-83
2023/10/25 10:11:36;;;;;;;15.32;9.10;;;10.30;99.90;;;;;;5099529;28;20487;-82
2023/10/25 10:14:30;;;;;;;13.82;8.65;;;11.00;99.90;;;;;;5095530;28;20421;-83
2023/10/25 10:16:58;;;;;;;14.45;8.65;;;;;;;;;;5086503;27;20422;-83
2023/10/25 10:19:24;;;;;;;15.33;8.40;;;;;;;;;;5094207;28;20448;-83
2023/10/25 10:22:07;;;;;;;12.38;8.07;;;11.10;99.90;;;;;;5107541;27;20743;-83
2023/10/25 10:24:49;;;;;;;15.85;7.75;;;10.90;99.90;;;;;;5084644;27;20406;-83
2023/10/25 10:27:26;;;;;;;14.15;7.40;;;11.00;99.90;;;;;;5093299;27;20426;-84
2023/10/25 10:29:52;;;;;;;11.35;7.43;;;11.40;99.90;;;;;;5100129;27;20443;-83
2023/10/25 10:32:18;;;;;;;18.65;7.95;;;;;;;;;;5081715;28;20417;-83
2023/10/25 10:34:57;;;;;;;12.27;7.35;;;11.30;99.90;;;;;;5092323;27;20522;-83
2023/10/25 10:37:24;;;;;;;12.90;6.67;;;;;;;;;;5070009;28;20424;-83
2023/10/25 10:39:57;;;;;;;12.65;7.00;;;;;;;;;;5111454;28;20416;-83
2023/10/25 10:42:29;;;;;;;11.13;7.00;;;;;;;;;;5101377;28;20505;-84
2023/10/25 10:45:09;;;;;;;14.50;7.00;;;11.60;99.90;;;;;;5083473;28;20903;-84
2023/10/25 10:47:43;;;;;;;14.18;7.65;;;11.60;99.90;;;;;;5085388;28;20971;-83
2023/10/25 10:50:23;;;;;;;12.75;7.00;;;11.80;99.90;;;;;;5094479;28;20414;-85
2023/10/25 10:52:51;;;;;;;12.40;7.28;;;11.50;99.90;;;;;;5106258;27;20515;-85
2023/10/25 10:55:21;;;;;;;12.87;7.10;;;11.90;99.90;;;;;;5123641;27;20410;-85
2023/10/25 10:57:47;;;;;;;12.52;7.45;;;;;;;;;;5103866;28;20425;-84
2023/10/25 11:00:16;;;;;;;14.90;7.68;;;11.90;99.90;;;;;;5100896;28;20432;-85
2023/10/25 11:02:51;;;;;;;15.00;7.15;;;;;;;;;;5080641;28;20415;-84
2023/10/25 11:05:20;;;;;;;11.88;6.63;;;12.10;99.90;;;;;;5095134;28;20485;-84
2023/10/25 11:07:49;;;;;;;11.40;6.50;;;12.10;99.90;;;;;;5112677;27;20397;-84
2023/10/25 11:10:16;;;;;;;12.27;6.90;;;;;;;;;;5103680;27;20756;-84
2023/10/25 11:12:42;;;;;;;12.67;6.60;;;;;;;;;;5083931;27;20400;-84
2023/10/25 11:15:09;;;;;;;13.05;6.28;;;;;;;;;;5120273;27;20477;-85
2023/10/25 11:17:36;;;;;;;13.73;7.20;;;;;;;;;;5123445;27;20411;-84
2023/10/25 11:20:02;;;;;;;11.20;6.45;;;;;;;;;;5098192;28;20426;-85
2023/10/25 11:22:30;;;;;;;12.50;5.85;;;;;;;;;;5086211;28;20402;-85
2023/10/25 11:24:57;;;;;;;10.73;6.22;;;;;;;;;;5122946;27;20456;-85
2023/10/25 11:27:28;;;;;;;11.90;6.30;;;;;;;;;;5105568;27;20406;-84
2023/10/25 11:29:55;;;;;;;11.27;6.25;;;;;;;;;;5113032;27;20492;-85
2023/10/25 11:32:21;;;;;;;10.65;6.53;;;;;;;;;;5102416;27;20404;-85
2023/10/25 11:34:52;;;;;;;12.10;5.67;;;;;;;;;;5071392;28;20929;-83
2023/10/25 11:37:19;;;;;;;9.95;5.63;;;;;;;;;;5107221;27;20755;-84
2023/10/25 11:39:59;;;;;;;11.23;5.07;;;;;;;;;;5109909;27;20514;-84
2023/10/25 11:42:29;;;;;;;11.70;5.53;;;12.00;99.90;;;;;;5096668;28;20892;-84
2023/10/25 11:44:56;;;;;;;10.18;5.43;;;;;;;;;;5092390;27;20893;-85
2023/10/25 11:47:22;;;;;;;12.88;5.82;;;;;;;;;;5101361;27;20987;-84
2023/10/25 11:49:56;;;;;;;11.10;5.35;;;12.20;99.90;;;;;;5080603;27;20448;-85
2023/10/25 11:52:28;;;;;;;10.23;5.45;;;12.20;99.90;;;;;;5103381;27;20422;-83
2023/10/25 11:54:57;;;;;;;12.18;5.50;;;;;;;;;;5106780;27;20424;-84
2023/10/25 11:57:24;;;;;;;12.23;5.63;;;;;;;;;;5103247;27;20402;-84
2023/10/25 11:59:51;;;;;;;9.30;5.90;;;;;;;;;;5082048;28;20492;-84
2023/10/25 12:02:20;;;;;;;11.05;6.22;;;12.10;99.90;;;;;;5104890;27;20416;-85
2023/10/25 12:04:46;;;;;;;10.85;6.00;;;;;;;;;;5080888;27;20461;-81
2023/10/25 12:07:12;;;;;;;13.00;6.22;;;;;;;;;;5108313;27;20417;-82
2023/10/25 12:09:39;;;;;;;11.93;6.07;;;;;;;;;;5093112;28;21016;-83
2023/10/25 12:12:08;;;;;;;9.18;6.00;;;;;;;;;;5088523;28;20414;-84
2023/10/25 12:14:34;;;;;;;10.50;6.25;;;;;;;;;;5092473;28;20461;-83
2023/10/25 12:17:00;;;;;;;14.48;6.40;;;;;;;;;;5083685;27;20423;-83
2023/10/25 12:19:26;;;;;;;10.30;5.60;;;;;;;;;;5124407;27;20399;-84
2023/10/25 12:21:55;;;;;;;11.90;5.60;;;;;;;;;;5099232;27;20402;-83
2023/10/25 12:24:31;;;;;;;10.77;6.33;;;;;;;;;;5096543;27;20392;-84
2023/10/25 12:26:57;;;;;;;12.98;7.10;;;;;;;;;;5095967;28;20428;-83
2023/10/25 12:29:25;;;;;;;11.55;6.22;;;;;;;;;;5108392;27;20404;-83
2023/10/25 12:31:51;;;;;;;10.15;6.22;;;;;;;;;;5093746;27;20567;-84
2023/10/25 12:34:17;;;;;;;10.27;6.20;;;;;;;;;;5089514;28;20422;-84
2023/10/25 12:36:43;;;;;;;12.38;6.15;;;;;;;;;;5080530;28;20461;-84
2023/10/25 12:39:09;;;;;;;9.63;5.78;;;;;;;;;;5102129;27;20417;-84
2023/10/25 12:41:35;;;;;;;13.50;6.20;;;;;;;;;;5084515;28;20905;-84
2023/10/25 12:44:08;;;;;;;9.67;6.00;;;;;;;;;;5087659;28;20429;-84
2023/10/25 12:46:34;;;;;;;11.02;6.55;;;;;;;;;;5115385;27;20519;-85
2023/10/25 12:49:00;;;;;;;11.85;7.25;;;;;;;;;;5089183;27;20410;-83
2023/10/25 12:51:26;;;;;;;14.13;8.18;;;;;;;;;;5077558;28;20472;-84
2023/10/25 12:53:52;;;;;;;14.90;9.02;;;;;;;;;;5091604;28;20422;-83
2023/10/25 12:56:18;;;;;;;14.30;8.10;;;;;;;;;;5076642;28;20475;-84
2023/10/25 12:58:44;;;;;;;15.07;8.37;;;11.80;99.90;;;;;;5093628;28;20405;-83
2023/10/25 13:01:10;;;;;;;16.10;7.85;;;;;;;;;;5079130;28;20406;-83
2023/10/25 13:03:36;;;;;;;13.32;7.13;;;;;;;;;;5106704;27;20422;-84
2023/10/25 13:06:03;;;;;;;11.57;6.65;;;;;;;;;;5102384;27;20419;-84
2023/10/25 13:08:29;;;;;;;11.48;5.82;;;;;;;;;;5097875;27;20509;-85
2023/10/25 13:10:55;;;;;;;11.95;6.05;;;;;;;;;;5110666;28;20446;-84
2023/10/25 13:13:22;;;;;;;10.88;6.30;;;;;;;;;;5112566;27;20411;-85
2023/10/25 13:15:48;;;;;;;13.32;7.78;;;;;;;;;;5108975;27;20414;-85
2023/10/25 13:18:14;;;;;;;11.82;7.05;;;;;;;;;;5113836;27;20425;-84
2023/10/25 13:20:41;;;;;;;12.02;6.85;;;;;;;;;;5081320;27;20418;-86
2023/10/25 13:23:07;;;;;;;11.25;6.70;;;;;;;;;;5131113;27;20391;-85
2023/10/25 13:25:33;;;;;;;9.90;6.53;;;;;;;;;;5082238;28;20400;-85
2023/10/25 13:28:00;;;;;;;12.18;7.47;;;11.50;99.90;;;;;;5082020;27;20402;-85
2023/10/25 13:30:26;;;;;;;13.80;7.88;;;;;;;;;;5107485;27;20401;-83
2023/10/25 13:32:53;;;;;;;14.98;8.30;;;;;;;;;;5076152;28;20807;-83
2023/10/25 13:35:19;;;;;;;13.55;7.30;;;;;;;;;;5103957;27;20416;-84
2023/10/25 13:37:45;;;;;;;12.77;8.02;;;;;;;;;;5124192;27;20394;-84
2023/10/25 13:40:11;;;;;;;14.00;8.18;;;;;;;;;;5085719;28;20403;-84
2023/10/25 13:42:38;;;;;;;13.93;8.23;;;;;;;;;;5099879;28;20452;-83
2023/10/25 13:45:07;;;;;;;17.60;8.57;;;;;;;;;;5079553;28;20402;-83
2023/10/25 13:47:33;;;;;;;15.00;8.32;;;;;;;;;;5090103;28;20862;-84
2023/10/25 13:50:00;;;;;;;14.07;9.10;;;;;;;;;;5104225;27;20399;-83
2023/10/25 13:52:26;;;;;;;12.73;7.72;;;;;;;;;;5102316;28;20415;-85
2023/10/25 13:54:52;;;;;;;12.07;7.73;;;;;;;;;;5101925;27;20418;-85
2023/10/25 13:57:18;;;;;;;18.55;8.27;;;;;;;;;;5092795;28;20972;-84
2023/10/25 13:59:44;;;;;;;16.70;8.50;;;;;;;;;;5095811;27;20394;-83
2023/10/25 14:02:11;;;;;;;13.67;8.67;;;;;;;;;;5092241;27;20923;-84
2023/10/25 14:04:37;;;;;;;14.50;9.23;;;;;;;;;;5087944;27;20802;-84